Walland, TN (37886)

11:52 AM EDT on August 31, 2015 (GMT -0400)
Jules Treehouse - Townsend | | Change Station
CLOSE
Current Station
Personal Weather Station
Location: Townsend, TN
Elevation: 1040 ft
Nearby Weather Stations

Elev 1040 ft 35.70 °N, 83.80 °W | Updated 35 seconds ago

Mostly Cloudy
Mostly Cloudy
73.2 °F
Feels Like 72 °F
N
0.0
Wind Variable Wind from East
Gusts 0.0 mph

Today
High -- | Low -- °F
--% Chance of Precip.
Yesterday
High -- | Low -- °F
Precip. -- in
7:06 AM 8:04 PM
Waning Gibbous, 95% visible
Pressure 30.14 in
Visibility 10.0 miles
Clouds Few 3200 ft
Mostly Cloudy 6000 ft
Overcast 18000 ft
Heat Index 72 °F
Dew Point 69 °F
Humidity 87%
Rainfall 0.00 in
Snow Depth Not available.
UV 2 out of 12
Pollen 9.10 out of 12
Air Quality Not available.
Flu Activity Not available.
METAR KTYS 311453Z 00000KT 10SM FEW032 BKN060 OVC180 25/18 A3017 RMK AO2 SLP207 T02500183 51014 $
Pressure 30.14 in
Visibility 10.0 miles
Clouds Few 3200 ft
Mostly Cloudy 6000 ft
Overcast 18000 ft
Heat Index 72 °F
Dew Point 69 °F
Humidity 87%
Rainfall 0.00 in
Snow Depth Not available.
UV 2 out of 12
Pollen 9.10 out of 12
Air Quality Not available.
Flu Activity Not available.
METAR KTYS 311453Z 00000KT 10SM FEW032 BKN060 OVC180 25/18 A3017 RMK AO2 SLP207 T02500183 51014 $

10-Day Weather Forecast

×

Almanac

Astronomy

Aug. 31, 2015 Rise Set
Actual Time
Civil Twilight
Nautical Twilight
Astronomical Twilight
Moon
Length of Visible Light
Length of Day
Tomorrow will be .
, % of the Moon is Illuminated

Today's Extremes

State Highs State Lows

Community

WunderPhotos

Upload Photos

1,851,282 photos uploaded!

WunderBlogs® & News

Nearby

Air Quality

  Air Quality AQ Index Pollutant
Not available.

Snow Depth

Station Depth Elevation

Earthquake Activity

City Distance Mag. Time & Date
Minimum magnitude displayed is 2.5.

Coastal Water Temperatures

Place Temperature

Stations

Nearby Weather Stations

Station Location Temp. Windchill Dew Point Humidity Wind Precip. Elev Updated Type